sensor_id;sensor_type;location;lat;lon;timestamp;P1;durP1;ratioP1;P2;durP2;ratioP2
10904;SDS011;5505;51.450;9.254;2022-09-09T00:01:57;2.83;;;1.00;;
10904;SDS011;5505;51.450;9.254;2022-09-09T00:04:51;3.27;;;0.70;;
10904;SDS011;5505;51.450;9.254;2022-09-09T00:07:46;2.17;;;0.80;;
10904;SDS011;5505;51.450;9.254;2022-09-09T00:10:36;2.73;;;0.83;;
10904;SDS011;5505;51.450;9.254;2022-09-09T00:13:28;2.27;;;0.90;;
10904;SDS011;5505;51.450;9.254;2022-09-09T00:16:21;1.87;;;0.80;;
10904;SDS011;5505;51.450;9.254;2022-09-09T00:19:14;4.27;;;0.70;;
10904;SDS011;5505;51.450;9.254;2022-09-09T00:22:12;4.17;;;0.90;;
10904;SDS011;5505;51.450;9.254;2022-09-09T00:25:08;2.17;;;1.00;;
10904;SDS011;5505;51.450;9.254;2022-09-09T00:27:58;2.67;;;0.90;;
10904;SDS011;5505;51.450;9.254;2022-09-09T00:30:45;2.20;;;0.83;;
10904;SDS011;5505;51.450;9.254;2022-09-09T00:33:33;1.63;;;0.80;;
10904;SDS011;5505;51.450;9.254;2022-09-09T00:36:23;3.60;;;0.83;;
10904;SDS011;5505;51.450;9.254;2022-09-09T00:39:23;3.83;;;0.70;;
10904;SDS011;5505;51.450;9.254;2022-09-09T00:42:18;2.93;;;1.17;;
10904;SDS011;5505;51.450;9.254;2022-09-09T00:45:13;2.60;;;0.90;;
10904;SDS011;5505;51.450;9.254;2022-09-09T00:48:12;3.43;;;1.20;;
10904;SDS011;5505;51.450;9.254;2022-09-09T00:51:02;2.13;;;1.00;;
10904;SDS011;5505;51.450;9.254;2022-09-09T00:54:01;2.10;;;0.60;;
10904;SDS011;5505;51.450;9.254;2022-09-09T00:57:12;3.07;;;1.10;;
10904;SDS011;5505;51.450;9.254;2022-09-09T01:00:16;2.60;;;0.90;;
10904;SDS011;5505;51.450;9.254;2022-09-09T01:03:10;1.97;;;0.90;;
10904;SDS011;5505;51.450;9.254;2022-09-09T01:06:16;2.10;;;0.90;;
10904;SDS011;5505;51.450;9.254;2022-09-09T01:09:15;2.90;;;1.07;;
10904;SDS011;5505;51.450;9.254;2022-09-09T01:12:09;3.40;;;1.10;;
10904;SDS011;5505;51.450;9.254;2022-09-09T01:15:03;3.03;;;1.03;;
10904;SDS011;5505;51.450;9.254;2022-09-09T01:17:56;4.70;;;1.20;;
10904;SDS011;5505;51.450;9.254;2022-09-09T01:20:49;2.93;;;0.83;;
10904;SDS011;5505;51.450;9.254;2022-09-09T01:23:46;2.80;;;0.80;;
10904;SDS011;5505;51.450;9.254;2022-09-09T01:26:48;3.13;;;1.20;;
10904;SDS011;5505;51.450;9.254;2022-09-09T01:29:37;3.03;;;0.97;;
10904;SDS011;5505;51.450;9.254;2022-09-09T01:32:39;2.77;;;0.90;;
10904;SDS011;5505;51.450;9.254;2022-09-09T01:35:34;2.13;;;0.80;;
10904;SDS011;5505;51.450;9.254;2022-09-09T01:38:28;3.50;;;1.00;;
10904;SDS011;5505;51.450;9.254;2022-09-09T01:41:16;3.10;;;0.93;;
10904;SDS011;5505;51.450;9.254;2022-09-09T01:44:05;4.40;;;1.10;;
10904;SDS011;5505;51.450;9.254;2022-09-09T01:46:53;3.87;;;1.03;;
10904;SDS011;5505;51.450;9.254;2022-09-09T01:49:40;2.97;;;1.10;;
10904;SDS011;5505;51.450;9.254;2022-09-09T01:52:27;3.87;;;1.00;;
10904;SDS011;5505;51.450;9.254;2022-09-09T01:55:14;1.97;;;1.00;;
10904;SDS011;5505;51.450;9.254;2022-09-09T01:58:11;4.20;;;1.20;;
10904;SDS011;5505;51.450;9.254;2022-09-09T02:01:10;3.43;;;0.80;;
10904;SDS011;5505;51.450;9.254;2022-09-09T02:04:06;3.77;;;1.20;;
10904;SDS011;5505;51.450;9.254;2022-09-09T02:07:06;3.50;;;1.03;;
10904;SDS011;5505;51.450;9.254;2022-09-09T02:10:01;3.20;;;1.00;;
10904;SDS011;5505;51.450;9.254;2022-09-09T02:12:55;3.47;;;0.80;;
10904;SDS011;5505;51.450;9.254;2022-09-09T02:15:50;5.57;;;1.20;;
10904;SDS011;5505;51.450;9.254;2022-09-09T02:18:43;2.53;;;1.20;;
10904;SDS011;5505;51.450;9.254;2022-09-09T02:21:34;2.87;;;0.83;;
10904;SDS011;5505;51.450;9.254;2022-09-09T02:24:22;3.03;;;0.83;;
10904;SDS011;5505;51.450;9.254;2022-09-09T02:27:11;2.23;;;1.17;;
10904;SDS011;5505;51.450;9.254;2022-09-09T02:30:01;2.03;;;0.90;;
10904;SDS011;5505;51.450;9.254;2022-09-09T02:32:50;2.83;;;1.13;;
10904;SDS011;5505;51.450;9.254;2022-09-09T02:35:43;2.83;;;0.90;;
10904;SDS011;5505;51.450;9.254;2022-09-09T02:38:33;2.53;;;0.90;;
10904;SDS011;5505;51.450;9.254;2022-09-09T02:41:26;3.53;;;0.90;;
10904;SDS011;5505;51.450;9.254;2022-09-09T02:44:17;2.97;;;1.20;;
10904;SDS011;5505;51.450;9.254;2022-09-09T02:47:15;3.10;;;1.00;;
10904;SDS011;5505;51.450;9.254;2022-09-09T02:50:12;2.93;;;1.10;;
10904;SDS011;5505;51.450;9.254;2022-09-09T02:53:05;2.77;;;1.30;;
10904;SDS011;5505;51.450;9.254;2022-09-09T02:55:57;2.43;;;1.00;;
10904;SDS011;5505;51.450;9.254;2022-09-09T02:58:48;4.27;;;1.07;;
10904;SDS011;5505;51.450;9.254;2022-09-09T03:01:36;2.47;;;0.90;;
10904;SDS011;5505;51.450;9.254;2022-09-09T03:04:25;2.13;;;0.90;;
10904;SDS011;5505;51.450;9.254;2022-09-09T03:07:11;3.40;;;0.97;;
10904;SDS011;5505;51.450;9.254;2022-09-09T03:10:00;5.40;;;1.20;;
10904;SDS011;5505;51.450;9.254;2022-09-09T03:12:47;2.37;;;1.00;;
10904;SDS011;5505;51.450;9.254;2022-09-09T03:15:35;1.90;;;0.83;;
10904;SDS011;5505;51.450;9.254;2022-09-09T03:18:23;4.33;;;1.23;;
10904;SDS011;5505;51.450;9.254;2022-09-09T03:21:10;3.13;;;0.90;;
10904;SDS011;5505;51.450;9.254;2022-09-09T03:23:57;3.57;;;0.80;;
10904;SDS011;5505;51.450;9.254;2022-09-09T03:26:45;2.37;;;0.90;;
10904;SDS011;5505;51.450;9.254;2022-09-09T03:29:32;2.43;;;1.10;;
10904;SDS011;5505;51.450;9.254;2022-09-09T03:32:20;2.80;;;0.70;;
10904;SDS011;5505;51.450;9.254;2022-09-09T03:35:10;4.57;;;1.27;;
10904;SDS011;5505;51.450;9.254;2022-09-09T03:37:57;2.83;;;1.03;;
10904;SDS011;5505;51.450;9.254;2022-09-09T03:40:49;2.60;;;1.13;;
10904;SDS011;5505;51.450;9.254;2022-09-09T03:43:38;3.60;;;0.97;;
10904;SDS011;5505;51.450;9.254;2022-09-09T03:46:25;3.07;;;1.23;;
10904;SDS011;5505;51.450;9.254;2022-09-09T03:49:12;2.77;;;1.10;;
10904;SDS011;5505;51.450;9.254;2022-09-09T03:52:00;3.03;;;1.10;;
10904;SDS011;5505;51.450;9.254;2022-09-09T03:54:47;3.23;;;1.10;;
10904;SDS011;5505;51.450;9.254;2022-09-09T03:57:34;3.27;;;1.00;;
10904;SDS011;5505;51.450;9.254;2022-09-09T04:00:23;3.17;;;0.97;;
10904;SDS011;5505;51.450;9.254;2022-09-09T04:03:09;3.37;;;1.00;;
10904;SDS011;5505;51.450;9.254;2022-09-09T04:05:57;2.00;;;0.90;;
10904;SDS011;5505;51.450;9.254;2022-09-09T04:08:47;2.37;;;1.10;;
10904;SDS011;5505;51.450;9.254;2022-09-09T04:11:34;2.43;;;1.10;;
10904;SDS011;5505;51.450;9.254;2022-09-09T04:14:22;2.57;;;1.20;;
10904;SDS011;5505;51.450;9.254;2022-09-09T04:17:14;3.33;;;1.10;;
10904;SDS011;5505;51.450;9.254;2022-09-09T04:20:01;2.47;;;1.10;;
10904;SDS011;5505;51.450;9.254;2022-09-09T04:22:48;2.23;;;1.00;;
10904;SDS011;5505;51.450;9.254;2022-09-09T04:25:35;3.30;;;1.10;;
10904;SDS011;5505;51.450;9.254;2022-09-09T04:28:23;3.47;;;1.20;;
10904;SDS011;5505;51.450;9.254;2022-09-09T04:31:13;3.67;;;1.27;;
10904;SDS011;5505;51.450;9.254;2022-09-09T04:34:03;2.27;;;1.10;;
10904;SDS011;5505;51.450;9.254;2022-09-09T04:36:51;2.20;;;1.10;;
10904;SDS011;5505;51.450;9.254;2022-09-09T04:39:38;5.10;;;1.47;;
10904;SDS011;5505;51.450;9.254;2022-09-09T04:42:25;1.87;;;1.00;;
10904;SDS011;5505;51.450;9.254;2022-09-09T04:45:12;3.93;;;1.17;;
10904;SDS011;5505;51.450;9.254;2022-09-09T04:48:00;2.10;;;1.10;;
10904;SDS011;5505;51.450;9.254;2022-09-09T04:50:55;3.83;;;1.80;;
10904;SDS011;5505;51.450;9.254;2022-09-09T04:53:43;4.90;;;1.30;;
10904;SDS011;5505;51.450;9.254;2022-09-09T04:56:30;3.53;;;1.20;;
10904;SDS011;5505;51.450;9.254;2022-09-09T04:59:17;3.90;;;1.50;;
10904;SDS011;5505;51.450;9.254;2022-09-09T05:02:04;3.33;;;1.23;;
10904;SDS011;5505;51.450;9.254;2022-09-09T05:04:50;5.43;;;1.43;;
10904;SDS011;5505;51.450;9.254;2022-09-09T05:07:39;3.70;;;1.30;;
10904;SDS011;5505;51.450;9.254;2022-09-09T05:10:26;4.40;;;1.07;;
10904;SDS011;5505;51.450;9.254;2022-09-09T05:13:14;4.30;;;1.37;;
10904;SDS011;5505;51.450;9.254;2022-09-09T05:16:01;3.87;;;1.37;;
10904;SDS011;5505;51.450;9.254;2022-09-09T05:18:49;3.43;;;1.20;;
10904;SDS011;5505;51.450;9.254;2022-09-09T05:21:36;5.90;;;1.30;;
10904;SDS011;5505;51.450;9.254;2022-09-09T05:24:25;6.27;;;1.37;;
10904;SDS011;5505;51.450;9.254;2022-09-09T05:27:11;1.73;;;0.90;;
10904;SDS011;5505;51.450;9.254;2022-09-09T05:29:58;3.87;;;1.03;;
10904;SDS011;5505;51.450;9.254;2022-09-09T05:32:45;2.60;;;0.93;;
10904;SDS011;5505;51.450;9.254;2022-09-09T05:35:32;2.47;;;1.37;;
10904;SDS011;5505;51.450;9.254;2022-09-09T05:38:19;2.67;;;1.07;;
10904;SDS011;5505;51.450;9.254;2022-09-09T05:41:11;3.43;;;1.43;;
10904;SDS011;5505;51.450;9.254;2022-09-09T05:44:00;3.33;;;1.20;;
10904;SDS011;5505;51.450;9.254;2022-09-09T05:46:48;4.20;;;1.20;;
10904;SDS011;5505;51.450;9.254;2022-09-09T05:49:35;3.13;;;1.10;;
10904;SDS011;5505;51.450;9.254;2022-09-09T05:52:22;2.37;;;1.00;;
10904;SDS011;5505;51.450;9.254;2022-09-09T05:55:10;3.93;;;1.27;;
10904;SDS011;5505;51.450;9.254;2022-09-09T05:57:59;2.73;;;1.17;;
10904;SDS011;5505;51.450;9.254;2022-09-09T06:00:46;2.87;;;1.10;;
10904;SDS011;5505;51.450;9.254;2022-09-09T06:03:34;3.07;;;1.00;;
10904;SDS011;5505;51.450;9.254;2022-09-09T06:06:23;4.33;;;1.30;;
10904;SDS011;5505;51.450;9.254;2022-09-09T06:09:11;3.33;;;1.00;;
10904;SDS011;5505;51.450;9.254;2022-09-09T06:11:58;5.77;;;1.13;;
10904;SDS011;5505;51.450;9.254;2022-09-09T06:14:46;2.70;;;1.10;;
10904;SDS011;5505;51.450;9.254;2022-09-09T06:17:35;2.57;;;1.00;;
10904;SDS011;5505;51.450;9.254;2022-09-09T06:20:24;2.00;;;0.80;;
10904;SDS011;5505;51.450;9.254;2022-09-09T06:23:10;4.23;;;0.90;;
10904;SDS011;5505;51.450;9.254;2022-09-09T06:26:02;3.67;;;0.90;;
10904;SDS011;5505;51.450;9.254;2022-09-09T06:28:52;1.90;;;0.83;;
10904;SDS011;5505;51.450;9.254;2022-09-09T06:31:41;3.80;;;1.00;;
10904;SDS011;5505;51.450;9.254;2022-09-09T06:34:28;3.17;;;0.90;;
10904;SDS011;5505;51.450;9.254;2022-09-09T06:37:15;5.03;;;1.07;;
10904;SDS011;5505;51.450;9.254;2022-09-09T06:40:02;3.80;;;1.17;;
10904;SDS011;5505;51.450;9.254;2022-09-09T06:42:50;3.07;;;1.10;;
10904;SDS011;5505;51.450;9.254;2022-09-09T06:45:36;2.67;;;1.00;;
10904;SDS011;5505;51.450;9.254;2022-09-09T06:48:25;4.30;;;1.10;;
10904;SDS011;5505;51.450;9.254;2022-09-09T06:51:13;2.90;;;0.87;;
10904;SDS011;5505;51.450;9.254;2022-09-09T06:54:03;4.53;;;1.10;;
10904;SDS011;5505;51.450;9.254;2022-09-09T06:56:51;5.37;;;1.30;;
10904;SDS011;5505;51.450;9.254;2022-09-09T06:59:38;2.53;;;1.00;;
10904;SDS011;5505;51.450;9.254;2022-09-09T07:02:25;5.10;;;1.27;;
10904;SDS011;5505;51.450;9.254;2022-09-09T07:05:14;2.30;;;1.00;;
10904;SDS011;5505;51.450;9.254;2022-09-09T07:08:01;5.23;;;1.13;;
10904;SDS011;5505;51.450;9.254;2022-09-09T07:10:48;2.63;;;1.20;;
10904;SDS011;5505;51.450;9.254;2022-09-09T07:13:36;4.77;;;1.00;;
10904;SDS011;5505;51.450;9.254;2022-09-09T07:16:23;5.10;;;1.20;;
10904;SDS011;5505;51.450;9.254;2022-09-09T07:19:10;1.50;;;1.00;;
10904;SDS011;5505;51.450;9.254;2022-09-09T07:22:00;3.33;;;1.00;;
10904;SDS011;5505;51.450;9.254;2022-09-09T07:24:48;1.97;;;1.10;;
10904;SDS011;5505;51.450;9.254;2022-09-09T07:27:35;4.10;;;1.13;;
10904;SDS011;5505;51.450;9.254;2022-09-09T07:30:22;6.07;;;1.30;;
10904;SDS011;5505;51.450;9.254;2022-09-09T07:33:09;3.97;;;1.23;;
10904;SDS011;5505;51.450;9.254;2022-09-09T07:36:02;2.43;;;1.00;;
10904;SDS011;5505;51.450;9.254;2022-09-09T07:38:54;3.43;;;0.97;;
10904;SDS011;5505;51.450;9.254;2022-09-09T07:41:43;3.03;;;1.07;;
10904;SDS011;5505;51.450;9.254;2022-09-09T07:44:32;3.83;;;1.40;;
10904;SDS011;5505;51.450;9.254;2022-09-09T07:47:20;4.00;;;1.43;;
10904;SDS011;5505;51.450;9.254;2022-09-09T07:50:09;4.20;;;0.90;;
10904;SDS011;5505;51.450;9.254;2022-09-09T07:52:56;3.93;;;1.03;;
10904;SDS011;5505;51.450;9.254;2022-09-09T07:55:45;2.47;;;1.10;;
10904;SDS011;5505;51.450;9.254;2022-09-09T07:58:32;2.30;;;0.80;;
10904;SDS011;5505;51.450;9.254;2022-09-09T08:01:20;3.77;;;1.00;;
10904;SDS011;5505;51.450;9.254;2022-09-09T08:04:11;1.87;;;1.00;;
10904;SDS011;5505;51.450;9.254;2022-09-09T08:07:00;3.80;;;0.93;;
10904;SDS011;5505;51.450;9.254;2022-09-09T08:09:48;1.97;;;0.83;;
10904;SDS011;5505;51.450;9.254;2022-09-09T08:12:36;4.30;;;1.10;;
10904;SDS011;5505;51.450;9.254;2022-09-09T08:15:23;3.60;;;1.10;;
10904;SDS011;5505;51.450;9.254;2022-09-09T08:18:10;2.77;;;0.90;;
10904;SDS011;5505;51.450;9.254;2022-09-09T08:20:57;3.63;;;1.13;;
10904;SDS011;5505;51.450;9.254;2022-09-09T08:23:47;2.57;;;1.03;;
10904;SDS011;5505;51.450;9.254;2022-09-09T08:26:34;3.63;;;1.40;;
10904;SDS011;5505;51.450;9.254;2022-09-09T08:29:24;3.13;;;0.90;;
10904;SDS011;5505;51.450;9.254;2022-09-09T08:32:12;3.03;;;1.20;;
10904;SDS011;5505;51.450;9.254;2022-09-09T08:34:59;5.27;;;1.20;;
10904;SDS011;5505;51.450;9.254;2022-09-09T08:37:46;3.07;;;1.10;;
10904;SDS011;5505;51.450;9.254;2022-09-09T08:40:33;3.53;;;0.90;;
10904;SDS011;5505;51.450;9.254;2022-09-09T08:43:25;2.33;;;0.90;;
10904;SDS011;5505;51.450;9.254;2022-09-09T08:46:16;3.70;;;1.00;;
10904;SDS011;5505;51.450;9.254;2022-09-09T08:49:15;2.23;;;0.97;;
10904;SDS011;5505;51.450;9.254;2022-09-09T08:52:12;3.67;;;1.00;;
10904;SDS011;5505;51.450;9.254;2022-09-09T08:55:05;1.83;;;0.90;;
10904;SDS011;5505;51.450;9.254;2022-09-09T08:58:04;3.90;;;1.03;;
10904;SDS011;5505;51.450;9.254;2022-09-09T09:01:02;3.73;;;1.10;;
10904;SDS011;5505;51.450;9.254;2022-09-09T09:04:06;2.33;;;0.90;;
10904;SDS011;5505;51.450;9.254;2022-09-09T09:07:00;2.47;;;0.97;;
10904;SDS011;5505;51.450;9.254;2022-09-09T09:09:57;2.93;;;1.20;;
10904;SDS011;5505;51.450;9.254;2022-09-09T09:12:48;5.27;;;1.30;;
10904;SDS011;5505;51.450;9.254;2022-09-09T09:15:36;2.23;;;0.90;;
10904;SDS011;5505;51.450;9.254;2022-09-09T09:18:23;3.57;;;0.90;;
10904;SDS011;5505;51.450;9.254;2022-09-09T09:21:13;5.80;;;1.23;;
10904;SDS011;5505;51.450;9.254;2022-09-09T09:24:07;2.87;;;1.03;;
10904;SDS011;5505;51.450;9.254;2022-09-09T09:27:07;4.87;;;1.30;;
10904;SDS011;5505;51.450;9.254;2022-09-09T09:30:00;2.37;;;0.90;;
10904;SDS011;5505;51.450;9.254;2022-09-09T09:32:50;4.33;;;1.67;;
10904;SDS011;5505;51.450;9.254;2022-09-09T09:35:39;5.93;;;1.30;;
10904;SDS011;5505;51.450;9.254;2022-09-09T09:38:28;3.53;;;1.60;;
10904;SDS011;5505;51.450;9.254;2022-09-09T09:41:15;4.10;;;1.30;;
10904;SDS011;5505;51.450;9.254;2022-09-09T09:44:03;5.80;;;1.20;;
10904;SDS011;5505;51.450;9.254;2022-09-09T09:46:50;2.73;;;1.00;;
10904;SDS011;5505;51.450;9.254;2022-09-09T09:49:38;2.37;;;0.97;;
10904;SDS011;5505;51.450;9.254;2022-09-09T09:52:26;4.27;;;1.10;;
10904;SDS011;5505;51.450;9.254;2022-09-09T09:55:16;4.40;;;0.97;;
10904;SDS011;5505;51.450;9.254;2022-09-09T09:58:03;3.27;;;0.93;;
10904;SDS011;5505;51.450;9.254;2022-09-09T10:00:52;2.63;;;0.83;;
10904;SDS011;5505;51.450;9.254;2022-09-09T10:03:39;4.03;;;0.80;;
10904;SDS011;5505;51.450;9.254;2022-09-09T10:06:37;3.37;;;0.80;;
10904;SDS011;5505;51.450;9.254;2022-09-09T10:09:25;2.50;;;0.77;;
10904;SDS011;5505;51.450;9.254;2022-09-09T10:12:17;4.73;;;1.17;;
10904;SDS011;5505;51.450;9.254;2022-09-09T10:15:21;2.33;;;0.70;;
10904;SDS011;5505;51.450;9.254;2022-09-09T10:18:23;4.37;;;1.17;;
10904;SDS011;5505;51.450;9.254;2022-09-09T10:21:29;4.33;;;1.00;;
10904;SDS011;5505;51.450;9.254;2022-09-09T10:24:42;2.00;;;0.50;;
10904;SDS011;5505;51.450;9.254;2022-09-09T10:27:44;2.33;;;0.80;;
10904;SDS011;5505;51.450;9.254;2022-09-09T10:30:45;2.50;;;0.70;;
10904;SDS011;5505;51.450;9.254;2022-09-09T10:33:41;4.67;;;0.90;;
10904;SDS011;5505;51.450;9.254;2022-09-09T10:36:36;2.57;;;0.87;;
10904;SDS011;5505;51.450;9.254;2022-09-09T10:39:32;2.03;;;0.70;;
10904;SDS011;5505;51.450;9.254;2022-09-09T10:42:22;3.63;;;0.93;;
10904;SDS011;5505;51.450;9.254;2022-09-09T10:45:18;2.47;;;0.67;;
10904;SDS011;5505;51.450;9.254;2022-09-09T10:51:22;1.47;;;0.40;;
10904;SDS011;5505;51.450;9.254;2022-09-09T10:54:24;2.97;;;0.63;;
10904;SDS011;5505;51.450;9.254;2022-09-09T10:57:24;1.70;;;0.77;;
10904;SDS011;5505;51.450;9.254;2022-09-09T11:00:16;1.90;;;0.57;;
10904;SDS011;5505;51.450;9.254;2022-09-09T11:03:06;2.83;;;0.43;;
10904;SDS011;5505;51.450;9.254;2022-09-09T11:06:00;3.07;;;0.77;;
10904;SDS011;5505;51.450;9.254;2022-09-09T11:08:50;3.37;;;0.70;;
10904;SDS011;5505;51.450;9.254;2022-09-09T11:11:41;2.67;;;0.80;;
10904;SDS011;5505;51.450;9.254;2022-09-09T11:14:31;1.37;;;0.53;;
10904;SDS011;5505;51.450;9.254;2022-09-09T11:17:26;2.03;;;0.80;;
10904;SDS011;5505;51.450;9.254;2022-09-09T11:20:18;4.23;;;0.93;;
10904;SDS011;5505;51.450;9.254;2022-09-09T11:23:08;1.87;;;0.50;;
10904;SDS011;5505;51.450;9.254;2022-09-09T11:25:59;1.83;;;0.60;;
10904;SDS011;5505;51.450;9.254;2022-09-09T11:28:53;4.17;;;0.97;;
10904;SDS011;5505;51.450;9.254;2022-09-09T11:31:52;3.07;;;0.73;;
10904;SDS011;5505;51.450;9.254;2022-09-09T11:34:52;3.83;;;0.50;;
10904;SDS011;5505;51.450;9.254;2022-09-09T11:37:47;1.83;;;0.73;;
10904;SDS011;5505;51.450;9.254;2022-09-09T11:40:44;2.37;;;0.70;;
10904;SDS011;5505;51.450;9.254;2022-09-09T11:43:33;6.23;;;0.93;;
10904;SDS011;5505;51.450;9.254;2022-09-09T11:46:31;3.57;;;0.77;;
10904;SDS011;5505;51.450;9.254;2022-09-09T11:49:26;1.50;;;0.70;;
10904;SDS011;5505;51.450;9.254;2022-09-09T11:52:21;3.17;;;0.70;;
10904;SDS011;5505;51.450;9.254;2022-09-09T11:55:11;2.47;;;1.03;;
10904;SDS011;5505;51.450;9.254;2022-09-09T11:58:15;3.73;;;0.87;;
10904;SDS011;5505;51.450;9.254;2022-09-09T12:01:12;3.37;;;1.00;;
10904;SDS011;5505;51.450;9.254;2022-09-09T12:07:31;1.37;;;0.70;;
10904;SDS011;5505;51.450;9.254;2022-09-09T12:10:22;2.33;;;0.67;;
10904;SDS011;5505;51.450;9.254;2022-09-09T12:13:16;3.00;;;1.00;;
10904;SDS011;5505;51.450;9.254;2022-09-09T12:16:26;1.80;;;0.67;;
10904;SDS011;5505;51.450;9.254;2022-09-09T12:19:16;4.23;;;0.70;;
10904;SDS011;5505;51.450;9.254;2022-09-09T12:22:07;2.57;;;0.70;;
10904;SDS011;5505;51.450;9.254;2022-09-09T12:25:03;3.17;;;0.90;;
10904;SDS011;5505;51.450;9.254;2022-09-09T12:28:02;2.10;;;0.67;;
10904;SDS011;5505;51.450;9.254;2022-09-09T12:30:56;2.17;;;0.57;;
10904;SDS011;5505;51.450;9.254;2022-09-09T12:33:51;3.13;;;0.73;;
10904;SDS011;5505;51.450;9.254;2022-09-09T12:36:39;2.47;;;0.60;;
10904;SDS011;5505;51.450;9.254;2022-09-09T12:39:28;3.57;;;0.87;;
10904;SDS011;5505;51.450;9.254;2022-09-09T12:42:21;3.73;;;0.70;;
10904;SDS011;5505;51.450;9.254;2022-09-09T12:45:15;1.63;;;0.70;;
10904;SDS011;5505;51.450;9.254;2022-09-09T12:48:03;3.83;;;0.90;;
10904;SDS011;5505;51.450;9.254;2022-09-09T12:50:52;2.33;;;0.70;;
10904;SDS011;5505;51.450;9.254;2022-09-09T12:53:41;2.17;;;0.80;;
10904;SDS011;5505;51.450;9.254;2022-09-09T12:56:28;3.00;;;0.90;;
10904;SDS011;5505;51.450;9.254;2022-09-09T12:59:23;2.10;;;0.77;;
10904;SDS011;5505;51.450;9.254;2022-09-09T13:02:15;2.17;;;0.70;;
10904;SDS011;5505;51.450;9.254;2022-09-09T13:05:13;1.20;;;0.60;;
10904;SDS011;5505;51.450;9.254;2022-09-09T13:08:04;2.50;;;0.73;;
10904;SDS011;5505;51.450;9.254;2022-09-09T13:10:53;1.80;;;0.50;;
10904;SDS011;5505;51.450;9.254;2022-09-09T13:13:49;1.63;;;0.67;;
10904;SDS011;5505;51.450;9.254;2022-09-09T13:16:39;2.70;;;0.70;;
10904;SDS011;5505;51.450;9.254;2022-09-09T13:19:26;1.53;;;0.57;;
10904;SDS011;5505;51.450;9.254;2022-09-09T13:22:19;2.73;;;0.77;;
10904;SDS011;5505;51.450;9.254;2022-09-09T13:25:17;1.20;;;0.57;;
10904;SDS011;5505;51.450;9.254;2022-09-09T13:28:18;1.77;;;0.40;;
10904;SDS011;5505;51.450;9.254;2022-09-09T13:31:19;0.77;;;0.40;;
10904;SDS011;5505;51.450;9.254;2022-09-09T13:34:11;2.37;;;0.50;;
10904;SDS011;5505;51.450;9.254;2022-09-09T13:37:00;3.87;;;0.80;;
10904;SDS011;5505;51.450;9.254;2022-09-09T13:39:51;3.97;;;0.67;;
10904;SDS011;5505;51.450;9.254;2022-09-09T13:42:39;4.63;;;0.77;;
10904;SDS011;5505;51.450;9.254;2022-09-09T13:45:28;1.63;;;0.43;;
10904;SDS011;5505;51.450;9.254;2022-09-09T13:48:17;2.10;;;0.60;;
10904;SDS011;5505;51.450;9.254;2022-09-09T13:54:16;1.20;;;0.57;;
10904;SDS011;5505;51.450;9.254;2022-09-09T13:57:04;2.97;;;0.60;;
10904;SDS011;5505;51.450;9.254;2022-09-09T13:59:52;3.53;;;0.70;;
10904;SDS011;5505;51.450;9.254;2022-09-09T14:02:41;2.13;;;0.50;;
10904;SDS011;5505;51.450;9.254;2022-09-09T14:05:29;3.07;;;0.60;;
10904;SDS011;5505;51.450;9.254;2022-09-09T14:08:23;4.07;;;0.70;;
10904;SDS011;5505;51.450;9.254;2022-09-09T14:11:12;3.17;;;0.50;;
10904;SDS011;5505;51.450;9.254;2022-09-09T14:13:59;2.03;;;0.80;;
10904;SDS011;5505;51.450;9.254;2022-09-09T14:16:46;3.10;;;0.90;;
10904;SDS011;5505;51.450;9.254;2022-09-09T14:19:33;7.47;;;1.40;;
10904;SDS011;5505;51.450;9.254;2022-09-09T14:22:20;2.73;;;0.53;;
10904;SDS011;5505;51.450;9.254;2022-09-09T14:25:08;1.87;;;0.63;;
10904;SDS011;5505;51.450;9.254;2022-09-09T14:27:56;1.67;;;0.60;;
10904;SDS011;5505;51.450;9.254;2022-09-09T14:30:43;2.17;;;0.50;;
10904;SDS011;5505;51.450;9.254;2022-09-09T14:33:30;1.17;;;0.40;;
10904;SDS011;5505;51.450;9.254;2022-09-09T14:36:18;2.77;;;0.70;;
10904;SDS011;5505;51.450;9.254;2022-09-09T14:39:04;2.27;;;0.70;;
10904;SDS011;5505;51.450;9.254;2022-09-09T14:41:53;1.27;;;0.60;;
10904;SDS011;5505;51.450;9.254;2022-09-09T14:44:40;0.87;;;0.50;;
10904;SDS011;5505;51.450;9.254;2022-09-09T14:47:27;3.70;;;0.80;;
10904;SDS011;5505;51.450;9.254;2022-09-09T14:50:14;1.40;;;0.57;;
10904;SDS011;5505;51.450;9.254;2022-09-09T14:53:01;1.40;;;0.40;;
10904;SDS011;5505;51.450;9.254;2022-09-09T14:55:48;0.67;;;0.37;;
10904;SDS011;5505;51.450;9.254;2022-09-09T14:58:36;1.80;;;0.60;;
10904;SDS011;5505;51.450;9.254;2022-09-09T15:01:24;1.40;;;0.70;;
10904;SDS011;5505;51.450;9.254;2022-09-09T15:04:12;1.83;;;0.60;;
10904;SDS011;5505;51.450;9.254;2022-09-09T15:07:00;1.63;;;0.63;;
10904;SDS011;5505;51.450;9.254;2022-09-09T15:09:47;2.00;;;0.40;;
10904;SDS011;5505;51.450;9.254;2022-09-09T15:12:34;1.30;;;0.50;;
10904;SDS011;5505;51.450;9.254;2022-09-09T15:15:23;3.20;;;0.50;;
10904;SDS011;5505;51.450;9.254;2022-09-09T15:18:09;5.33;;;0.80;;
10904;SDS011;5505;51.450;9.254;2022-09-09T15:20:57;2.50;;;0.70;;
10904;SDS011;5505;51.450;9.254;2022-09-09T15:23:45;1.17;;;0.50;;
10904;SDS011;5505;51.450;9.254;2022-09-09T15:26:33;2.03;;;0.63;;
10904;SDS011;5505;51.450;9.254;2022-09-09T15:29:20;1.20;;;0.53;;
10904;SDS011;5505;51.450;9.254;2022-09-09T15:32:08;1.43;;;0.80;;
10904;SDS011;5505;51.450;9.254;2022-09-09T15:34:55;2.77;;;0.77;;
10904;SDS011;5505;51.450;9.254;2022-09-09T15:37:42;1.93;;;0.80;;
10904;SDS011;5505;51.450;9.254;2022-09-09T15:40:30;3.67;;;1.00;;
10904;SDS011;5505;51.450;9.254;2022-09-09T15:43:17;2.17;;;0.83;;
10904;SDS011;5505;51.450;9.254;2022-09-09T15:46:08;2.23;;;0.60;;
10904;SDS011;5505;51.450;9.254;2022-09-09T15:49:14;4.00;;;1.07;;
10904;SDS011;5505;51.450;9.254;2022-09-09T15:52:02;2.23;;;0.80;;
10904;SDS011;5505;51.450;9.254;2022-09-09T15:54:49;1.70;;;0.73;;
10904;SDS011;5505;51.450;9.254;2022-09-09T15:57:36;1.63;;;0.60;;
10904;SDS011;5505;51.450;9.254;2022-09-09T16:00:23;2.03;;;0.60;;
10904;SDS011;5505;51.450;9.254;2022-09-09T16:03:10;1.43;;;0.60;;
10904;SDS011;5505;51.450;9.254;2022-09-09T16:05:59;2.70;;;0.80;;
10904;SDS011;5505;51.450;9.254;2022-09-09T16:08:46;2.90;;;1.10;;
10904;SDS011;5505;51.450;9.254;2022-09-09T16:11:36;0.93;;;0.60;;
10904;SDS011;5505;51.450;9.254;2022-09-09T16:14:24;5.33;;;0.67;;
10904;SDS011;5505;51.450;9.254;2022-09-09T16:17:11;2.67;;;0.70;;
10904;SDS011;5505;51.450;9.254;2022-09-09T16:19:59;1.80;;;0.83;;
10904;SDS011;5505;51.450;9.254;2022-09-09T16:22:47;2.00;;;0.80;;
10904;SDS011;5505;51.450;9.254;2022-09-09T16:25:34;4.33;;;1.20;;
10904;SDS011;5505;51.450;9.254;2022-09-09T16:28:21;2.50;;;0.83;;
10904;SDS011;5505;51.450;9.254;2022-09-09T16:31:09;2.57;;;1.00;;
10904;SDS011;5505;51.450;9.254;2022-09-09T16:33:59;1.57;;;0.53;;
10904;SDS011;5505;51.450;9.254;2022-09-09T16:36:46;2.20;;;0.50;;
10904;SDS011;5505;51.450;9.254;2022-09-09T16:39:35;2.93;;;0.70;;
10904;SDS011;5505;51.450;9.254;2022-09-09T16:42:24;0.87;;;0.23;;
10904;SDS011;5505;51.450;9.254;2022-09-09T16:45:11;2.27;;;0.60;;
10904;SDS011;5505;51.450;9.254;2022-09-09T16:47:58;2.60;;;0.60;;
10904;SDS011;5505;51.450;9.254;2022-09-09T16:50:45;2.80;;;0.77;;
10904;SDS011;5505;51.450;9.254;2022-09-09T16:53:33;1.40;;;0.37;;
10904;SDS011;5505;51.450;9.254;2022-09-09T16:56:22;1.33;;;0.40;;
10904;SDS011;5505;51.450;9.254;2022-09-09T16:59:11;2.17;;;0.60;;
10904;SDS011;5505;51.450;9.254;2022-09-09T17:01:59;2.43;;;0.70;;
10904;SDS011;5505;51.450;9.254;2022-09-09T17:04:49;1.50;;;0.50;;
10904;SDS011;5505;51.450;9.254;2022-09-09T17:07:36;1.30;;;0.50;;
10904;SDS011;5505;51.450;9.254;2022-09-09T17:10:23;1.33;;;0.60;;
10904;SDS011;5505;51.450;9.254;2022-09-09T17:13:12;1.20;;;0.43;;
10904;SDS011;5505;51.450;9.254;2022-09-09T17:15:59;2.83;;;0.47;;
10904;SDS011;5505;51.450;9.254;2022-09-09T17:18:50;2.03;;;0.50;;
10904;SDS011;5505;51.450;9.254;2022-09-09T17:21:38;3.37;;;0.60;;
10904;SDS011;5505;51.450;9.254;2022-09-09T17:24:25;2.43;;;0.93;;
10904;SDS011;5505;51.450;9.254;2022-09-09T17:27:13;3.07;;;0.80;;
10904;SDS011;5505;51.450;9.254;2022-09-09T17:30:02;2.00;;;0.70;;
10904;SDS011;5505;51.450;9.254;2022-09-09T17:32:49;2.50;;;0.53;;